createdAt,value
2023-03-23T15:59:14.082Z,18.10
2023-03-23T16:01:42.729Z,22.70
2023-03-23T16:04:18.974Z,29.90
2023-03-23T16:06:48.686Z,58.70
2023-03-23T16:09:19.042Z,36.00
2023-03-23T16:11:50.142Z,42.40
2023-03-23T16:14:19.364Z,63.60
2023-03-23T16:16:51.379Z,50.00
2023-03-23T16:19:24.619Z,22.50
2023-03-23T16:21:55.607Z,35.30
2023-03-23T16:24:25.824Z,76.60
2023-03-23T16:26:54.489Z,97.00
2023-03-23T16:29:46.714Z,138.60
2023-03-23T16:32:11.117Z,261.30
2023-03-23T16:34:39.579Z,185.50
2023-03-23T16:37:12.882Z,132.90
2023-03-23T16:39:42.336Z,81.70
2023-03-23T16:42:11.095Z,43.40
2023-03-23T16:44:41.307Z,32.80
2023-03-23T16:47:10.058Z,42.30
2023-03-23T16:49:41.771Z,40.80
2023-03-23T16:52:10.239Z,53.40
2023-03-23T16:54:39.384Z,35.00
2023-03-23T16:57:10.234Z,37.30
2023-03-23T16:59:40.171Z,27.80
2023-03-23T17:02:10.238Z,33.00
2023-03-23T17:04:39.124Z,42.10
2023-03-23T17:07:08.904Z,39.80
2023-03-23T17:09:38.964Z,33.10
2023-03-23T17:12:08.859Z,35.40
2023-03-23T17:14:38.781Z,38.50
2023-03-23T17:17:10.710Z,36.70
2023-03-23T17:19:40.547Z,51.30
2023-03-23T17:22:10.203Z,47.40
2023-03-23T17:24:40.143Z,47.60
2023-03-23T17:27:09.032Z,54.60
2023-03-23T17:29:37.250Z,44.70
2023-03-23T17:32:06.379Z,44.80
2023-03-23T17:34:34.752Z,48.50
2023-03-23T17:37:04.663Z,46.90
2023-03-23T17:39:43.311Z,44.50
2023-03-23T17:42:12.207Z,41.70
2023-03-23T17:44:40.814Z,38.70
2023-03-23T17:47:10.498Z,35.70
2023-03-23T17:49:39.952Z,41.60
2023-03-23T17:52:08.734Z,47.20
2023-03-23T17:54:36.931Z,46.20
2023-03-23T17:57:09.373Z,44.00
2023-03-23T17:59:38.270Z,48.40
2023-03-23T18:02:06.771Z,57.30
2023-03-23T18:04:37.264Z,61.30
2023-03-23T18:07:05.429Z,60.70
2023-03-23T18:09:36.042Z,53.10
2023-03-23T18:12:05.496Z,49.40
2023-03-23T18:14:34.582Z,52.50
2023-03-23T18:17:07.011Z,56.30
2023-03-23T18:19:36.425Z,56.00
2023-03-23T18:22:06.861Z,56.20
2023-03-23T18:24:35.862Z,61.40
2023-03-23T18:27:04.014Z,65.80
2023-03-23T18:29:33.828Z,50.20
2023-03-23T18:32:02.030Z,60.00
2023-03-23T18:34:32.207Z,57.60
2023-03-23T18:37:00.409Z,53.30
2023-03-23T18:39:29.010Z,51.60
2023-03-23T18:41:57.246Z,63.00
2023-03-23T18:44:25.717Z,68.00
2023-03-23T18:46:54.966Z,58.10
2023-03-23T18:49:24.473Z,73.00
2023-03-23T18:51:52.574Z,89.70
2023-03-23T18:54:20.848Z,90.00
2023-03-23T18:56:49.186Z,96.00
2023-03-23T18:59:17.833Z,109.10
2023-03-23T19:01:47.077Z,89.50
2023-03-23T19:04:22.421Z,62.70
2023-03-23T19:06:50.827Z,100.00
2023-03-23T19:09:19.093Z,105.10
2023-03-23T19:11:48.634Z,124.70
2023-03-23T19:14:18.357Z,122.00
2023-03-23T19:16:46.482Z,116.00
2023-03-23T19:19:15.380Z,110.60
2023-03-23T19:21:47.054Z,102.80
2023-03-23T19:24:17.928Z,100.50
2023-03-23T19:26:47.886Z,105.00
2023-03-23T19:31:53.375Z,86.70
2023-03-23T19:34:22.166Z,88.60
2023-03-23T19:36:56.200Z,87.50
2023-03-23T19:39:32.967Z,83.70
2023-03-23T19:42:01.526Z,87.80
2023-03-23T19:44:29.730Z,94.70
2023-03-23T19:46:58.122Z,94.30
2023-03-23T19:49:28.320Z,92.20
2023-03-23T19:52:08.014Z,97.20
2023-03-23T19:54:39.423Z,82.90
2023-03-23T19:57:08.174Z,87.30
2023-03-23T19:59:37.151Z,80.60
2023-03-23T20:02:09.674Z,81.40
2023-03-23T20:04:39.999Z,78.50
2023-03-23T20:07:10.276Z,81.00
2023-03-23T20:09:39.470Z,84.20
2023-03-23T20:12:13.059Z,75.90
2023-03-23T20:14:45.025Z,85.60
2023-03-23T20:17:14.812Z,95.60
2023-03-23T20:19:45.955Z,96.30
2023-03-23T20:22:14.792Z,84.00
2023-03-23T20:24:45.261Z,93.50
2023-03-23T20:27:15.435Z,91.00
2023-03-23T20:29:44.205Z,86.40
2023-03-23T20:32:17.526Z,82.20
2023-03-23T20:34:49.394Z,81.80
2023-03-23T20:37:20.476Z,83.80
2023-03-23T20:39:50.195Z,85.00
2023-03-23T20:42:18.456Z,78.60
2023-03-23T20:44:46.564Z,85.20
2023-03-23T20:47:15.291Z,110.80
2023-03-23T20:49:44.213Z,108.10
2023-03-23T20:52:22.969Z,90.00
2023-03-23T20:54:51.184Z,71.80
2023-03-23T20:57:20.884Z,71.90
2023-03-23T20:59:51.076Z,60.80
2023-03-23T21:02:19.838Z,44.00
2023-03-23T21:04:52.914Z,43.90
2023-03-23T21:07:23.986Z,65.70
2023-03-23T21:09:52.666Z,70.00
2023-03-23T21:12:22.850Z,72.20
2023-03-23T21:14:51.802Z,69.90
2023-03-23T21:17:20.746Z,64.70
2023-03-23T21:19:50.103Z,50.70
2023-03-23T21:22:19.557Z,66.80
2023-03-23T21:24:50.506Z,63.60
2023-03-23T21:29:51.375Z,55.30
2023-03-23T21:32:19.946Z,64.60
2023-03-23T21:34:51.590Z,63.00
2023-03-23T21:37:20.060Z,68.00
2023-03-23T21:39:52.688Z,60.50
2023-03-23T21:42:20.970Z,66.30
2023-03-23T21:44:49.660Z,101.50
2023-03-23T21:47:20.977Z,120.70
2023-03-23T21:49:49.604Z,107.40
2023-03-23T21:52:17.802Z,94.50
2023-03-23T21:54:46.509Z,116.10
2023-03-23T21:57:15.073Z,121.40
2023-03-23T21:59:43.402Z,118.60
2023-03-23T22:02:12.930Z,124.80
2023-03-23T22:04:42.266Z,123.50
2023-03-23T22:07:15.438Z,114.80
2023-03-23T22:09:45.118Z,113.50
2023-03-23T22:12:13.534Z,107.20
2023-03-23T22:14:42.747Z,102.40
2023-03-23T22:17:13.180Z,89.40
2023-03-23T22:19:41.431Z,104.10
2023-03-23T22:22:20.083Z,100.90
2023-03-23T22:24:48.693Z,99.00
2023-03-23T22:27:17.118Z,95.60
2023-03-23T22:29:47.567Z,102.30
2023-03-23T22:32:16.102Z,101.50
2023-03-23T22:34:44.420Z,105.90
2023-03-23T22:37:13.380Z,96.90
2023-03-23T22:39:41.730Z,108.90
2023-03-23T22:42:15.184Z,106.10
2023-03-23T22:44:46.280Z,99.70
2023-03-23T22:47:15.554Z,106.80
2023-03-23T22:49:44.301Z,105.00
2023-03-23T22:52:12.920Z,105.70
2023-03-23T22:54:41.193Z,114.60
2023-03-23T22:57:11.343Z,99.00
2023-03-23T22:59:39.763Z,124.80
2023-03-23T23:02:08.693Z,104.70
2023-03-23T23:04:37.210Z,92.50
2023-03-23T23:07:12.865Z,108.90
2023-03-23T23:09:56.091Z,96.70
2023-03-23T23:12:24.428Z,106.70
2023-03-23T23:14:58.641Z,95.00
2023-03-23T23:17:27.903Z,98.50
2023-03-23T23:19:57.597Z,109.80
2023-03-23T23:22:26.022Z,108.80
2023-03-23T23:24:54.444Z,123.20
2023-03-23T23:27:23.084Z,130.40
2023-03-23T23:29:52.521Z,117.80
2023-03-23T23:32:21.218Z,141.80
2023-03-23T23:34:55.002Z,131.60
2023-03-23T23:37:24.151Z,136.80
2023-03-23T23:39:52.305Z,146.70
2023-03-23T23:42:23.331Z,151.70
2023-03-23T23:44:52.302Z,165.00
2023-03-23T23:47:21.795Z,159.80
2023-03-23T23:49:50.744Z,146.30
2023-03-23T23:52:19.320Z,132.70
2023-03-23T23:54:49.218Z,133.80
2023-03-23T23:57:17.492Z,125.00
2023-03-23T23:59:45.730Z,112.60
